sensor_id;sensor_type;location;lat;lon;timestamp;temperature;humidity
70762;DHT22;58360;0.000;0.000;2022-12-20T00:01:23;11.60;78.00
70762;DHT22;58360;0.000;0.000;2022-12-20T00:03:50;11.70;77.50
70762;DHT22;58360;0.000;0.000;2022-12-20T00:06:16;11.70;77.70
70762;DHT22;58360;0.000;0.000;2022-12-20T00:08:43;11.70;77.80
70762;DHT22;58360;0.000;0.000;2022-12-20T00:11:10;11.70;77.70
70762;DHT22;58360;0.000;0.000;2022-12-20T00:13:36;11.80;77.50
70762;DHT22;58360;0.000;0.000;2022-12-20T00:18:31;11.90;77.60
70762;DHT22;58360;0.000;0.000;2022-12-20T00:20:58;11.90;77.30
70762;DHT22;58360;0.000;0.000;2022-12-20T00:23:25;11.90;77.70
70762;DHT22;58360;0.000;0.000;2022-12-20T00:25:50;11.90;78.20
70762;DHT22;58360;0.000;0.000;2022-12-20T00:28:16;12.00;78.80
70762;DHT22;58360;0.000;0.000;2022-12-20T00:30:42;11.90;79.40
70762;DHT22;58360;0.000;0.000;2022-12-20T00:33:07;11.90;79.50
70762;DHT22;58360;0.000;0.000;2022-12-20T00:35:33;11.90;79.60
70762;DHT22;58360;0.000;0.000;2022-12-20T00:37:59;11.90;79.70
70762;DHT22;58360;0.000;0.000;2022-12-20T00:40:24;11.90;80.60
70762;DHT22;58360;0.000;0.000;2022-12-20T00:42:50;11.80;81.80
70762;DHT22;58360;0.000;0.000;2022-12-20T00:45:16;11.90;82.70
70762;DHT22;58360;0.000;0.000;2022-12-20T00:47:41;11.70;82.90
70762;DHT22;58360;0.000;0.000;2022-12-20T00:50:07;11.70;83.90
70762;DHT22;58360;0.000;0.000;2022-12-20T00:52:33;11.60;84.60
70762;DHT22;58360;0.000;0.000;2022-12-20T00:54:59;11.60;84.20
70762;DHT22;58360;0.000;0.000;2022-12-20T00:57:24;11.60;84.50
70762;DHT22;58360;0.000;0.000;2022-12-20T00:59:50;11.50;84.60
70762;DHT22;58360;0.000;0.000;2022-12-20T01:02:15;11.60;84.70
70762;DHT22;58360;0.000;0.000;2022-12-20T01:04:41;11.70;84.20
70762;DHT22;58360;0.000;0.000;2022-12-20T01:07:07;11.50;84.70
70762;DHT22;58360;0.000;0.000;2022-12-20T01:09:33;11.50;84.80
70762;DHT22;58360;0.000;0.000;2022-12-20T01:11:58;11.50;85.10
70762;DHT22;58360;0.000;0.000;2022-12-20T01:14:24;11.50;85.00
70762;DHT22;58360;0.000;0.000;2022-12-20T01:16:50;11.50;84.90
70762;DHT22;58360;0.000;0.000;2022-12-20T01:19:17;11.60;84.30
70762;DHT22;58360;0.000;0.000;2022-12-20T01:21:43;11.50;84.20
70762;DHT22;58360;0.000;0.000;2022-12-20T01:24:18;11.50;84.20
70762;DHT22;58360;0.000;0.000;2022-12-20T01:26:47;11.50;84.30
70762;DHT22;58360;0.000;0.000;2022-12-20T01:29:13;11.40;84.50
70762;DHT22;58360;0.000;0.000;2022-12-20T01:31:39;11.20;85.30
70762;DHT22;58360;0.000;0.000;2022-12-20T01:34:05;11.30;85.10
70762;DHT22;58360;0.000;0.000;2022-12-20T01:36:33;11.30;84.90
70762;DHT22;58360;0.000;0.000;2022-12-20T01:41:31;11.30;84.50
70762;DHT22;58360;0.000;0.000;2022-12-20T01:43:59;11.30;84.50
70762;DHT22;58360;0.000;0.000;2022-12-20T01:46:28;11.30;84.70
70762;DHT22;58360;0.000;0.000;2022-12-20T01:49:08;11.20;85.00
70762;DHT22;58360;0.000;0.000;2022-12-20T01:51:42;11.10;85.10
70762;DHT22;58360;0.000;0.000;2022-12-20T01:54:18;11.10;85.10
70762;DHT22;58360;0.000;0.000;2022-12-20T01:56:56;11.10;84.70
70762;DHT22;58360;0.000;0.000;2022-12-20T01:59:24;11.20;84.40
70762;DHT22;58360;0.000;0.000;2022-12-20T02:01:50;11.20;84.20
70762;DHT22;58360;0.000;0.000;2022-12-20T02:04:16;11.20;84.20
70762;DHT22;58360;0.000;0.000;2022-12-20T02:06:42;11.40;83.40
70762;DHT22;58360;0.000;0.000;2022-12-20T02:09:07;11.40;83.30
70762;DHT22;58360;0.000;0.000;2022-12-20T02:27:13;11.30;85.10
70762;DHT22;58360;0.000;0.000;2022-12-20T02:32:58;11.40;84.90
70762;DHT22;58360;0.000;0.000;2022-12-20T02:35:27;11.40;84.30
70762;DHT22;58360;0.000;0.000;2022-12-20T02:37:56;11.30;85.10
70762;DHT22;58360;0.000;0.000;2022-12-20T02:40:32;11.30;84.90
70762;DHT22;58360;0.000;0.000;2022-12-20T02:43:02;11.40;84.70
70762;DHT22;58360;0.000;0.000;2022-12-20T02:45:33;11.40;84.60
70762;DHT22;58360;0.000;0.000;2022-12-20T02:48:04;11.40;84.70
70762;DHT22;58360;0.000;0.000;2022-12-20T02:50:36;11.50;84.20
70762;DHT22;58360;0.000;0.000;2022-12-20T02:53:03;11.60;83.60
70762;DHT22;58360;0.000;0.000;2022-12-20T02:55:45;11.50;83.80
70762;DHT22;58360;0.000;0.000;2022-12-20T02:58:33;11.60;83.70
70762;DHT22;58360;0.000;0.000;2022-12-20T03:01:02;11.60;83.90
70762;DHT22;58360;0.000;0.000;2022-12-20T03:03:34;11.50;84.00
70762;DHT22;58360;0.000;0.000;2022-12-20T03:06:00;11.50;84.20
70762;DHT22;58360;0.000;0.000;2022-12-20T03:08:26;11.60;83.70
70762;DHT22;58360;0.000;0.000;2022-12-20T03:10:53;11.60;83.90
70762;DHT22;58360;0.000;0.000;2022-12-20T03:13:20;11.60;84.00
70762;DHT22;58360;0.000;0.000;2022-12-20T03:15:46;11.50;84.20
70762;DHT22;58360;0.000;0.000;2022-12-20T03:18:12;11.60;84.20
70762;DHT22;58360;0.000;0.000;2022-12-20T03:20:37;11.60;84.10
70762;DHT22;58360;0.000;0.000;2022-12-20T03:23:04;11.60;84.60
70762;DHT22;58360;0.000;0.000;2022-12-20T03:25:29;11.60;83.70
70762;DHT22;58360;0.000;0.000;2022-12-20T03:27:55;11.70;83.60
70762;DHT22;58360;0.000;0.000;2022-12-20T03:30:21;11.70;83.70
70762;DHT22;58360;0.000;0.000;2022-12-20T03:32:47;11.70;83.30
70762;DHT22;58360;0.000;0.000;2022-12-20T03:35:12;11.80;83.00
70762;DHT22;58360;0.000;0.000;2022-12-20T03:37:38;11.80;82.90
70762;DHT22;58360;0.000;0.000;2022-12-20T03:40:05;11.80;83.10
70762;DHT22;58360;0.000;0.000;2022-12-20T03:42:31;11.90;82.90
70762;DHT22;58360;0.000;0.000;2022-12-20T03:44:57;11.90;82.80
70762;DHT22;58360;0.000;0.000;2022-12-20T03:47:22;11.90;82.80
70762;DHT22;58360;0.000;0.000;2022-12-20T03:49:48;11.90;82.30
70762;DHT22;58360;0.000;0.000;2022-12-20T03:52:14;11.90;82.40
70762;DHT22;58360;0.000;0.000;2022-12-20T03:54:40;12.10;81.90
70762;DHT22;58360;0.000;0.000;2022-12-20T03:57:06;12.10;81.60
70762;DHT22;58360;0.000;0.000;2022-12-20T03:59:32;12.10;81.80
70762;DHT22;58360;0.000;0.000;2022-12-20T04:01:57;12.00;82.00
70762;DHT22;58360;0.000;0.000;2022-12-20T04:04:23;11.90;82.60
70762;DHT22;58360;0.000;0.000;2022-12-20T04:06:49;11.80;83.10
70762;DHT22;58360;0.000;0.000;2022-12-20T04:09:14;11.80;83.00
70762;DHT22;58360;0.000;0.000;2022-12-20T04:11:40;11.90;82.80
70762;DHT22;58360;0.000;0.000;2022-12-20T04:14:06;12.00;82.40
70762;DHT22;58360;0.000;0.000;2022-12-20T04:16:32;11.90;82.70
70762;DHT22;58360;0.000;0.000;2022-12-20T04:18:58;12.00;82.30
70762;DHT22;58360;0.000;0.000;2022-12-20T04:21:32;12.10;82.20
70762;DHT22;58360;0.000;0.000;2022-12-20T04:23:59;12.00;82.50
70762;DHT22;58360;0.000;0.000;2022-12-20T04:26:26;12.00;82.50
70762;DHT22;58360;0.000;0.000;2022-12-20T04:28:52;12.10;82.30
70762;DHT22;58360;0.000;0.000;2022-12-20T04:31:18;12.10;82.70
70762;DHT22;58360;0.000;0.000;2022-12-20T04:33:44;12.10;82.50
70762;DHT22;58360;0.000;0.000;2022-12-20T04:36:10;12.10;82.60
70762;DHT22;58360;0.000;0.000;2022-12-20T04:38:36;12.30;82.20
70762;DHT22;58360;0.000;0.000;2022-12-20T04:41:02;12.20;82.20
70762;DHT22;58360;0.000;0.000;2022-12-20T04:43:27;12.20;82.30
70762;DHT22;58360;0.000;0.000;2022-12-20T04:45:54;12.20;82.60
70762;DHT22;58360;0.000;0.000;2022-12-20T04:48:24;12.20;82.50
70762;DHT22;58360;0.000;0.000;2022-12-20T04:50:55;12.10;82.70
70762;DHT22;58360;0.000;0.000;2022-12-20T04:53:21;12.10;83.00
70762;DHT22;58360;0.000;0.000;2022-12-20T04:56:05;12.10;83.00
70762;DHT22;58360;0.000;0.000;2022-12-20T04:58:31;12.00;83.20
70762;DHT22;58360;0.000;0.000;2022-12-20T05:00:57;12.00;83.60
70762;DHT22;58360;0.000;0.000;2022-12-20T05:03:24;12.00;83.20
70762;DHT22;58360;0.000;0.000;2022-12-20T05:05:51;11.90;83.40
70762;DHT22;58360;0.000;0.000;2022-12-20T05:08:17;11.90;83.50
70762;DHT22;58360;0.000;0.000;2022-12-20T05:10:43;12.10;82.70
70762;DHT22;58360;0.000;0.000;2022-12-20T05:13:09;12.10;82.10
70762;DHT22;58360;0.000;0.000;2022-12-20T05:15:35;12.20;82.00
70762;DHT22;58360;0.000;0.000;2022-12-20T05:18:01;12.10;81.80
70762;DHT22;58360;0.000;0.000;2022-12-20T05:20:28;12.10;82.00
70762;DHT22;58360;0.000;0.000;2022-12-20T05:22:55;12.10;81.70
70762;DHT22;58360;0.000;0.000;2022-12-20T05:25:44;12.10;81.60
70762;DHT22;58360;0.000;0.000;2022-12-20T05:28:29;12.10;81.30
70762;DHT22;58360;0.000;0.000;2022-12-20T05:30:55;12.00;81.50
70762;DHT22;58360;0.000;0.000;2022-12-20T05:33:21;12.10;81.10
70762;DHT22;58360;0.000;0.000;2022-12-20T05:35:47;12.00;81.10
70762;DHT22;58360;0.000;0.000;2022-12-20T05:38:13;11.90;81.60
70762;DHT22;58360;0.000;0.000;2022-12-20T05:40:39;12.00;80.80
70762;DHT22;58360;0.000;0.000;2022-12-20T05:43:05;12.00;80.80
70762;DHT22;58360;0.000;0.000;2022-12-20T05:45:31;11.80;81.00
70762;DHT22;58360;0.000;0.000;2022-12-20T05:47:57;11.80;80.90
70762;DHT22;58360;0.000;0.000;2022-12-20T05:50:23;11.90;80.30
70762;DHT22;58360;0.000;0.000;2022-12-20T05:52:49;11.90;80.50
70762;DHT22;58360;0.000;0.000;2022-12-20T05:55:15;11.90;80.40
70762;DHT22;58360;0.000;0.000;2022-12-20T05:57:41;11.70;81.00
70762;DHT22;58360;0.000;0.000;2022-12-20T06:00:07;11.80;80.30
70762;DHT22;58360;0.000;0.000;2022-12-20T06:02:33;11.90;80.20
70762;DHT22;58360;0.000;0.000;2022-12-20T06:04:58;11.90;80.40
70762;DHT22;58360;0.000;0.000;2022-12-20T06:07:25;12.00;79.10
70762;DHT22;58360;0.000;0.000;2022-12-20T06:09:53;12.00;79.30
70762;DHT22;58360;0.000;0.000;2022-12-20T06:12:19;11.90;79.70
70762;DHT22;58360;0.000;0.000;2022-12-20T06:14:45;11.90;79.90
70762;DHT22;58360;0.000;0.000;2022-12-20T06:17:10;11.90;79.70
70762;DHT22;58360;0.000;0.000;2022-12-20T06:19:36;11.90;79.50
70762;DHT22;58360;0.000;0.000;2022-12-20T06:22:02;11.90;79.50
70762;DHT22;58360;0.000;0.000;2022-12-20T06:24:28;11.90;79.70
70762;DHT22;58360;0.000;0.000;2022-12-20T06:26:53;11.80;79.80
70762;DHT22;58360;0.000;0.000;2022-12-20T06:29:19;11.80;79.70
70762;DHT22;58360;0.000;0.000;2022-12-20T06:31:46;11.80;79.80
70762;DHT22;58360;0.000;0.000;2022-12-20T06:34:12;11.80;79.60
70762;DHT22;58360;0.000;0.000;2022-12-20T06:36:38;11.80;79.40
70762;DHT22;58360;0.000;0.000;2022-12-20T06:39:03;11.90;79.40
70762;DHT22;58360;0.000;0.000;2022-12-20T06:41:29;11.90;79.00
70762;DHT22;58360;0.000;0.000;2022-12-20T06:43:55;12.00;79.10
70762;DHT22;58360;0.000;0.000;2022-12-20T06:46:20;12.00;78.60
70762;DHT22;58360;0.000;0.000;2022-12-20T06:48:46;12.00;78.70
70762;DHT22;58360;0.000;0.000;2022-12-20T06:51:12;12.00;78.90
70762;DHT22;58360;0.000;0.000;2022-12-20T06:53:37;12.00;78.30
70762;DHT22;58360;0.000;0.000;2022-12-20T06:56:03;12.00;78.40
70762;DHT22;58360;0.000;0.000;2022-12-20T06:58:29;11.90;78.80
70762;DHT22;58360;0.000;0.000;2022-12-20T07:00:55;11.90;78.90
70762;DHT22;58360;0.000;0.000;2022-12-20T07:03:20;12.00;78.20
70762;DHT22;58360;0.000;0.000;2022-12-20T07:05:53;12.20;77.60
70762;DHT22;58360;0.000;0.000;2022-12-20T07:08:20;12.30;77.10
70762;DHT22;58360;0.000;0.000;2022-12-20T07:10:47;12.30;77.50
70762;DHT22;58360;0.000;0.000;2022-12-20T07:13:12;12.20;78.90
70762;DHT22;58360;0.000;0.000;2022-12-20T07:15:38;12.20;79.30
70762;DHT22;58360;0.000;0.000;2022-12-20T07:18:04;12.10;80.00
70762;DHT22;58360;0.000;0.000;2022-12-20T07:20:31;12.00;81.50
70762;DHT22;58360;0.000;0.000;2022-12-20T07:22:57;12.10;81.30
70762;DHT22;58360;0.000;0.000;2022-12-20T07:25:23;12.20;81.70
70762;DHT22;58360;0.000;0.000;2022-12-20T07:27:50;12.10;81.80
70762;DHT22;58360;0.000;0.000;2022-12-20T07:30:17;12.10;82.10
70762;DHT22;58360;0.000;0.000;2022-12-20T07:32:43;12.10;82.00
70762;DHT22;58360;0.000;0.000;2022-12-20T07:35:10;12.10;83.20
70762;DHT22;58360;0.000;0.000;2022-12-20T07:37:36;12.00;83.60
70762;DHT22;58360;0.000;0.000;2022-12-20T07:40:02;11.90;84.60
70762;DHT22;58360;0.000;0.000;2022-12-20T07:42:28;11.90;84.80
70762;DHT22;58360;0.000;0.000;2022-12-20T07:44:54;11.90;85.60
70762;DHT22;58360;0.000;0.000;2022-12-20T07:47:20;11.90;86.10
70762;DHT22;58360;0.000;0.000;2022-12-20T07:49:45;11.90;85.60
70762;DHT22;58360;0.000;0.000;2022-12-20T07:52:14;12.00;86.70
70762;DHT22;58360;0.000;0.000;2022-12-20T07:54:43;12.00;86.90
70762;DHT22;58360;0.000;0.000;2022-12-20T07:57:21;11.90;87.40
70762;DHT22;58360;0.000;0.000;2022-12-20T07:59:50;11.90;88.00
70762;DHT22;58360;0.000;0.000;2022-12-20T08:02:21;11.90;88.30
70762;DHT22;58360;0.000;0.000;2022-12-20T08:04:49;11.90;87.60
70762;DHT22;58360;0.000;0.000;2022-12-20T08:07:15;11.80;89.10
70762;DHT22;58360;0.000;0.000;2022-12-20T08:09:42;11.70;89.90
70762;DHT22;58360;0.000;0.000;2022-12-20T08:12:10;11.70;90.10
70762;DHT22;58360;0.000;0.000;2022-12-20T08:14:36;11.60;90.30
70762;DHT22;58360;0.000;0.000;2022-12-20T08:17:02;11.60;90.40
70762;DHT22;58360;0.000;0.000;2022-12-20T08:19:27;11.60;90.50
70762;DHT22;58360;0.000;0.000;2022-12-20T08:21:54;11.50;90.70
70762;DHT22;58360;0.000;0.000;2022-12-20T08:24:19;11.50;91.10
70762;DHT22;58360;0.000;0.000;2022-12-20T08:26:45;11.60;90.80
70762;DHT22;58360;0.000;0.000;2022-12-20T08:29:11;11.60;90.60
70762;DHT22;58360;0.000;0.000;2022-12-20T08:31:38;11.60;90.80
70762;DHT22;58360;0.000;0.000;2022-12-20T08:34:05;11.60;90.60
70762;DHT22;58360;0.000;0.000;2022-12-20T08:36:30;11.60;90.70
70762;DHT22;58360;0.000;0.000;2022-12-20T08:38:56;11.40;91.10
70762;DHT22;58360;0.000;0.000;2022-12-20T08:41:22;11.50;91.40
70762;DHT22;58360;0.000;0.000;2022-12-20T08:43:47;11.60;91.20
70762;DHT22;58360;0.000;0.000;2022-12-20T08:46:13;11.50;91.40
70762;DHT22;58360;0.000;0.000;2022-12-20T08:48:39;11.40;91.70
70762;DHT22;58360;0.000;0.000;2022-12-20T08:51:08;11.50;91.50
70762;DHT22;58360;0.000;0.000;2022-12-20T08:53:35;11.60;91.10
70762;DHT22;58360;0.000;0.000;2022-12-20T08:56:12;11.60;91.10
70762;DHT22;58360;0.000;0.000;2022-12-20T08:58:39;11.60;91.00
70762;DHT22;58360;0.000;0.000;2022-12-20T09:01:06;11.50;91.20
70762;DHT22;58360;0.000;0.000;2022-12-20T09:03:34;11.50;91.60
70762;DHT22;58360;0.000;0.000;2022-12-20T09:06:03;11.50;91.50
70762;DHT22;58360;0.000;0.000;2022-12-20T09:08:29;11.50;91.30
70762;DHT22;58360;0.000;0.000;2022-12-20T09:11:03;11.60;91.30
70762;DHT22;58360;0.000;0.000;2022-12-20T09:13:29;11.70;91.00
70762;DHT22;58360;0.000;0.000;2022-12-20T09:15:54;11.70;90.80
70762;DHT22;58360;0.000;0.000;2022-12-20T09:18:20;11.60;91.10
70762;DHT22;58360;0.000;0.000;2022-12-20T09:20:46;11.70;91.10
70762;DHT22;58360;0.000;0.000;2022-12-20T09:23:11;11.80;90.80
70762;DHT22;58360;0.000;0.000;2022-12-20T09:25:37;11.90;90.50
70762;DHT22;58360;0.000;0.000;2022-12-20T09:28:03;12.00;90.30
70762;DHT22;58360;0.000;0.000;2022-12-20T09:30:29;11.90;90.30
70762;DHT22;58360;0.000;0.000;2022-12-20T09:32:55;11.90;90.50
70762;DHT22;58360;0.000;0.000;2022-12-20T09:35:21;11.70;90.90
70762;DHT22;58360;0.000;0.000;2022-12-20T09:37:47;11.70;91.20
70762;DHT22;58360;0.000;0.000;2022-12-20T09:40:21;11.70;91.30
70762;DHT22;58360;0.000;0.000;2022-12-20T09:42:49;11.70;91.30
70762;DHT22;58360;0.000;0.000;2022-12-20T09:45:25;11.60;91.50
70762;DHT22;58360;0.000;0.000;2022-12-20T09:47:52;11.60;91.80
70762;DHT22;58360;0.000;0.000;2022-12-20T09:50:18;11.60;91.90
70762;DHT22;58360;0.000;0.000;2022-12-20T09:55:43;11.80;91.60
70762;DHT22;58360;0.000;0.000;2022-12-20T10:00:55;11.90;91.20
70762;DHT22;58360;0.000;0.000;2022-12-20T10:03:29;11.90;91.00
70762;DHT22;58360;0.000;0.000;2022-12-20T10:06:08;11.90;91.10
70762;DHT22;58360;0.000;0.000;2022-12-20T10:09:05;11.90;91.30
70762;DHT22;58360;0.000;0.000;2022-12-20T10:23:18;11.90;91.30
70762;DHT22;58360;0.000;0.000;2022-12-20T10:25:50;11.90;91.10
70762;DHT22;58360;0.000;0.000;2022-12-20T10:28:19;11.90;90.90
70762;DHT22;58360;0.000;0.000;2022-12-20T10:30:48;11.90;91.20
70762;DHT22;58360;0.000;0.000;2022-12-20T10:33:22;11.80;91.60
70762;DHT22;58360;0.000;0.000;2022-12-20T10:35:49;11.80;91.60
70762;DHT22;58360;0.000;0.000;2022-12-20T10:38:16;11.80;91.90
70762;DHT22;58360;0.000;0.000;2022-12-20T10:40:47;11.80;92.10
70762;DHT22;58360;0.000;0.000;2022-12-20T10:43:23;11.80;91.80
70762;DHT22;58360;0.000;0.000;2022-12-20T10:46:06;11.90;91.70
70762;DHT22;58360;0.000;0.000;2022-12-20T10:48:38;12.20;90.90
70762;DHT22;58360;0.000;0.000;2022-12-20T10:53:33;11.90;91.80
70762;DHT22;58360;0.000;0.000;2022-12-20T10:56:25;11.90;92.10
70762;DHT22;58360;0.000;0.000;2022-12-20T11:01:24;11.90;92.00
70762;DHT22;58360;0.000;0.000;2022-12-20T11:03:52;11.90;92.00
70762;DHT22;58360;0.000;0.000;2022-12-20T11:06:20;11.90;91.80
70762;DHT22;58360;0.000;0.000;2022-12-20T11:08:46;11.90;92.00
70762;DHT22;58360;0.000;0.000;2022-12-20T11:11:23;11.90;91.90
70762;DHT22;58360;0.000;0.000;2022-12-20T11:13:50;12.00;91.90
70762;DHT22;58360;0.000;0.000;2022-12-20T11:19:13;12.00;91.80
70762;DHT22;58360;0.000;0.000;2022-12-20T11:42:05;12.10;91.80
70762;DHT22;58360;0.000;0.000;2022-12-20T11:49:51;12.10;91.60
70762;DHT22;58360;0.000;0.000;2022-12-20T11:57:44;12.10;91.50
70762;DHT22;58360;0.000;0.000;2022-12-20T12:00:13;12.10;91.40
70762;DHT22;58360;0.000;0.000;2022-12-20T12:02:47;12.10;91.60
70762;DHT22;58360;0.000;0.000;2022-12-20T12:05:22;12.00;91.90
70762;DHT22;58360;0.000;0.000;2022-12-20T12:07:54;11.90;92.00
70762;DHT22;58360;0.000;0.000;2022-12-20T12:10:30;11.90;92.10
70762;DHT22;58360;0.000;0.000;2022-12-20T12:18:41;12.00;91.60
70762;DHT22;58360;0.000;0.000;2022-12-20T12:26:29;12.00;91.90
70762;DHT22;58360;0.000;0.000;2022-12-20T12:29:05;12.00;92.00
70762;DHT22;58360;0.000;0.000;2022-12-20T12:47:36;12.00;91.70
70762;DHT22;58360;0.000;0.000;2022-12-20T12:50:07;11.90;91.90
70762;DHT22;58360;0.000;0.000;2022-12-20T12:52:49;11.80;92.10
70762;DHT22;58360;0.000;0.000;2022-12-20T12:55:36;11.80;92.20
70762;DHT22;58360;0.000;0.000;2022-12-20T13:00:55;11.90;91.90
70762;DHT22;58360;0.000;0.000;2022-12-20T13:16:46;11.90;91.70
70762;DHT22;58360;0.000;0.000;2022-12-20T13:19:35;11.90;91.80
70762;DHT22;58360;0.000;0.000;2022-12-20T13:27:23;11.80;91.90
70762;DHT22;58360;0.000;0.000;2022-12-20T13:38:02;11.70;92.20
70762;DHT22;58360;0.000;0.000;2022-12-20T13:43:42;11.80;91.80
70762;DHT22;58360;0.000;0.000;2022-12-20T13:51:03;11.70;92.20
70762;DHT22;58360;0.000;0.000;2022-12-20T13:53:30;11.70;92.10
70762;DHT22;58360;0.000;0.000;2022-12-20T13:55:56;11.70;92.20
70762;DHT22;58360;0.000;0.000;2022-12-20T13:58:25;11.70;92.10
70762;DHT22;58360;0.000;0.000;2022-12-20T14:00:52;11.70;92.20
70762;DHT22;58360;0.000;0.000;2022-12-20T14:03:25;11.70;92.20
70762;DHT22;58360;0.000;0.000;2022-12-20T14:06:01;11.70;92.10
70762;DHT22;58360;0.000;0.000;2022-12-20T14:08:31;11.80;91.90
70762;DHT22;58360;0.000;0.000;2022-12-20T14:11:21;11.70;92.10
70762;DHT22;58360;0.000;0.000;2022-12-20T14:13:59;11.60;92.40
70762;DHT22;58360;0.000;0.000;2022-12-20T14:16:27;11.60;92.60
70762;DHT22;58360;0.000;0.000;2022-12-20T14:21:22;11.70;92.20
70762;DHT22;58360;0.000;0.000;2022-12-20T14:23:50;11.60;92.10
70762;DHT22;58360;0.000;0.000;2022-12-20T14:28:51;11.60;92.40
70762;DHT22;58360;0.000;0.000;2022-12-20T14:36:41;11.60;92.10
70762;DHT22;58360;0.000;0.000;2022-12-20T14:42:00;11.60;92.50
70762;DHT22;58360;0.000;0.000;2022-12-20T14:44:29;11.50;92.60
70762;DHT22;58360;0.000;0.000;2022-12-20T14:46:59;11.60;92.40
70762;DHT22;58360;0.000;0.000;2022-12-20T14:49:32;11.60;92.40
70762;DHT22;58360;0.000;0.000;2022-12-20T14:55:13;11.70;92.40
70762;DHT22;58360;0.000;0.000;2022-12-20T14:57:49;11.70;92.30
70762;DHT22;58360;0.000;0.000;2022-12-20T15:00:26;11.60;92.50
70762;DHT22;58360;0.000;0.000;2022-12-20T15:10:47;11.60;92.50
70762;DHT22;58360;0.000;0.000;2022-12-20T15:13:18;11.60;92.70
70762;DHT22;58360;0.000;0.000;2022-12-20T15:15:43;11.70;92.60
70762;DHT22;58360;0.000;0.000;2022-12-20T15:18:14;11.60;92.50
70762;DHT22;58360;0.000;0.000;2022-12-20T15:20:41;11.60;92.40
70762;DHT22;58360;0.000;0.000;2022-12-20T15:23:33;11.70;92.40
70762;DHT22;58360;0.000;0.000;2022-12-20T15:26:00;11.60;92.40
70762;DHT22;58360;0.000;0.000;2022-12-20T15:28:26;11.60;92.40
70762;DHT22;58360;0.000;0.000;2022-12-20T15:30:53;11.70;92.20
70762;DHT22;58360;0.000;0.000;2022-12-20T15:33:28;11.70;92.40
70762;DHT22;58360;0.000;0.000;2022-12-20T15:35:55;11.70;92.40
70762;DHT22;58360;0.000;0.000;2022-12-20T15:38:25;11.60;92.50
70762;DHT22;58360;0.000;0.000;2022-12-20T15:40:53;11.60;92.50
70762;DHT22;58360;0.000;0.000;2022-12-20T15:43:21;11.60;92.60
70762;DHT22;58360;0.000;0.000;2022-12-20T15:45:51;11.70;92.50
70762;DHT22;58360;0.000;0.000;2022-12-20T15:48:22;11.80;92.30
70762;DHT22;58360;0.000;0.000;2022-12-20T15:50:50;11.80;92.10
70762;DHT22;58360;0.000;0.000;2022-12-20T15:53:19;11.70;92.10
70762;DHT22;58360;0.000;0.000;2022-12-20T15:55:49;11.70;92.30
70762;DHT22;58360;0.000;0.000;2022-12-20T15:58:15;11.70;92.30
70762;DHT22;58360;0.000;0.000;2022-12-20T16:00:41;11.70;92.40
70762;DHT22;58360;0.000;0.000;2022-12-20T16:03:17;11.60;92.50
70762;DHT22;58360;0.000;0.000;2022-12-20T16:05:45;11.60;92.60
70762;DHT22;58360;0.000;0.000;2022-12-20T16:08:11;11.60;92.40
70762;DHT22;58360;0.000;0.000;2022-12-20T16:10:37;11.50;92.60
70762;DHT22;58360;0.000;0.000;2022-12-20T16:13:03;11.70;92.30
70762;DHT22;58360;0.000;0.000;2022-12-20T16:15:29;11.60;92.30
70762;DHT22;58360;0.000;0.000;2022-12-20T16:17:55;11.60;92.40
70762;DHT22;58360;0.000;0.000;2022-12-20T16:20:20;11.60;92.50
70762;DHT22;58360;0.000;0.000;2022-12-20T16:22:46;11.50;92.50
70762;DHT22;58360;0.000;0.000;2022-12-20T16:25:35;11.70;92.20
70762;DHT22;58360;0.000;0.000;2022-12-20T16:28:01;11.60;92.50
70762;DHT22;58360;0.000;0.000;2022-12-20T16:30:27;11.50;92.60
70762;DHT22;58360;0.000;0.000;2022-12-20T16:32:53;11.50;92.70
70762;DHT22;58360;0.000;0.000;2022-12-20T16:37:48;11.50;92.50
70762;DHT22;58360;0.000;0.000;2022-12-20T16:40:14;11.50;92.90
70762;DHT22;58360;0.000;0.000;2022-12-20T16:42:40;11.50;92.70
70762;DHT22;58360;0.000;0.000;2022-12-20T16:45:10;11.50;92.60
70762;DHT22;58360;0.000;0.000;2022-12-20T16:47:37;11.50;92.60
70762;DHT22;58360;0.000;0.000;2022-12-20T16:50:05;11.60;92.50
70762;DHT22;58360;0.000;0.000;2022-12-20T16:52:32;11.70;92.30
70762;DHT22;58360;0.000;0.000;2022-12-20T16:55:02;11.70;92.30
70762;DHT22;58360;0.000;0.000;2022-12-20T16:57:28;11.60;92.30
70762;DHT22;58360;0.000;0.000;2022-12-20T16:59:53;11.50;92.60
70762;DHT22;58360;0.000;0.000;2022-12-20T17:02:29;11.50;92.40
70762;DHT22;58360;0.000;0.000;2022-12-20T17:04:56;11.50;92.60
70762;DHT22;58360;0.000;0.000;2022-12-20T17:07:21;11.40;92.90
70762;DHT22;58360;0.000;0.000;2022-12-20T17:09:47;11.40;93.00
70762;DHT22;58360;0.000;0.000;2022-12-20T17:12:15;11.40;93.00
70762;DHT22;58360;0.000;0.000;2022-12-20T17:14:41;11.50;93.00
70762;DHT22;58360;0.000;0.000;2022-12-20T17:17:07;11.40;92.90
70762;DHT22;58360;0.000;0.000;2022-12-20T17:19:32;11.50;92.70
70762;DHT22;58360;0.000;0.000;2022-12-20T17:21:58;11.60;92.50
70762;DHT22;58360;0.000;0.000;2022-12-20T17:24:25;11.50;92.70
70762;DHT22;58360;0.000;0.000;2022-12-20T17:26:50;11.50;92.80
70762;DHT22;58360;0.000;0.000;2022-12-20T17:29:16;11.50;92.70
70762;DHT22;58360;0.000;0.000;2022-12-20T17:31:44;11.50;92.90
70762;DHT22;58360;0.000;0.000;2022-12-20T17:34:26;11.40;92.80
70762;DHT22;58360;0.000;0.000;2022-12-20T17:36:53;11.50;92.80
70762;DHT22;58360;0.000;0.000;2022-12-20T17:39:20;11.40;92.80
70762;DHT22;58360;0.000;0.000;2022-12-20T17:41:46;11.50;92.80
70762;DHT22;58360;0.000;0.000;2022-12-20T17:44:32;11.50;92.60
70762;DHT22;58360;0.000;0.000;2022-12-20T17:46:58;11.50;92.80
70762;DHT22;58360;0.000;0.000;2022-12-20T17:49:23;11.50;93.00
70762;DHT22;58360;0.000;0.000;2022-12-20T17:51:49;11.50;92.80
70762;DHT22;58360;0.000;0.000;2022-12-20T17:54:20;11.50;92.90
70762;DHT22;58360;0.000;0.000;2022-12-20T17:56:48;11.50;92.80
70762;DHT22;58360;0.000;0.000;2022-12-20T17:59:18;11.50;92.60
70762;DHT22;58360;0.000;0.000;2022-12-20T18:01:45;11.60;92.40
70762;DHT22;58360;0.000;0.000;2022-12-20T18:04:13;11.50;92.40
70762;DHT22;58360;0.000;0.000;2022-12-20T18:06:40;11.60;92.40
70762;DHT22;58360;0.000;0.000;2022-12-20T18:09:20;11.60;92.50
70762;DHT22;58360;0.000;0.000;2022-12-20T18:11:46;11.60;92.50
70762;DHT22;58360;0.000;0.000;2022-12-20T18:14:13;11.70;92.20
70762;DHT22;58360;0.000;0.000;2022-12-20T18:16:39;11.90;91.70
70762;DHT22;58360;0.000;0.000;2022-12-20T18:19:05;11.90;91.60
70762;DHT22;58360;0.000;0.000;2022-12-20T18:21:31;11.70;91.80
70762;DHT22;58360;0.000;0.000;2022-12-20T18:23:57;11.70;92.10
70762;DHT22;58360;0.000;0.000;2022-12-20T18:26:28;11.80;91.90
70762;DHT22;58360;0.000;0.000;2022-12-20T18:28:59;11.80;91.80
70762;DHT22;58360;0.000;0.000;2022-12-20T18:31:31;11.60;92.20
70762;DHT22;58360;0.000;0.000;2022-12-20T18:33:58;11.70;92.20
70762;DHT22;58360;0.000;0.000;2022-12-20T18:36:29;11.80;91.80
70762;DHT22;58360;0.000;0.000;2022-12-20T18:38:56;11.80;91.60
70762;DHT22;58360;0.000;0.000;2022-12-20T18:41:25;11.80;91.70
70762;DHT22;58360;0.000;0.000;2022-12-20T18:43:56;11.80;91.80